Time;durP1;ratioP1;P1;durP2;ratioP2;P2;SDS_P1;SDS_P2;PMS_P1;PMS_P2;Temp;Humidity;BMP_temperature;BMP_pressure;BME280_temperature;BME280_humidity;BME280_pressure;Samples;Min_cycle;Max_cycle;Signal;HPM_P1;HPM_P2
2021/05/11 00:00:32;;;;;;;5.83;3.47;;;15.80;99.90;;;;;;5030772;28;20220;-51
2021/05/11 00:02:59;;;;;;;5.37;3.17;;;15.90;99.90;;;;;;5029606;28;20269;-50
2021/05/11 00:05:30;;;;;;;4.13;3.10;;;16.00;1.00;;;;;;5029496;28;20237;-50
2021/05/11 00:07:57;;;;;;;5.77;3.10;;;15.90;1.00;;;;;;5032201;28;20306;-50
2021/05/11 00:10:25;;;;;;;10.00;3.97;;;15.70;1.00;;;;;;5027925;28;20209;-50
2021/05/11 00:12:53;;;;;;;9.57;3.70;;;15.50;1.00;;;;;;5030082;28;20226;-50
2021/05/11 00:15:20;;;;;;;5.27;3.50;;;15.60;99.90;;;;;;5029906;28;20214;-50
2021/05/11 00:17:46;;;;;;;7.43;3.60;;;15.70;1.00;;;;;;5027834;28;20194;-50
2021/05/11 00:20:15;;;;;;;9.53;3.27;;;15.80;1.00;;;;;;5029340;28;20266;-50
2021/05/11 00:22:41;;;;;;;6.70;3.17;;;15.80;67.70;;;;;;5030816;28;20264;-50
2021/05/11 00:25:08;;;;;;;8.70;3.30;;;15.60;1.00;;;;;;5030211;28;20224;-50
2021/05/11 00:27:34;;;;;;;5.13;3.10;;;15.80;1.00;;;;;;5029357;28;20229;-49
2021/05/11 00:30:01;;;;;;;5.43;3.30;;;15.60;1.00;;;;;;5031087;28;20210;-49
2021/05/11 00:32:27;;;;;;;6.87;3.40;;;15.60;99.90;;;;;;5027353;28;20293;-50
2021/05/11 00:34:53;;;;;;;7.67;3.63;;;15.70;79.70;;;;;;5032063;28;20216;-50
2021/05/11 00:37:20;;;;;;;9.37;3.53;;;15.80;99.90;;;;;;5029239;28;20485;-49
2021/05/11 00:39:46;;;;;;;5.83;3.13;;;15.70;1.00;;;;;;5028351;28;20188;-50
2021/05/11 00:42:12;;;;;;;9.93;3.37;;;15.80;99.90;;;;;;5030318;28;20308;-50
2021/05/11 00:44:38;;;;;;;5.67;3.00;;;15.60;99.90;;;;;;5030663;28;20328;-50
2021/05/11 00:47:06;;;;;;;12.20;3.60;;;15.40;99.90;;;;;;5026024;28;20614;-50
2021/05/11 00:49:35;;;;;;;6.93;3.10;;;15.50;1.00;;;;;;5027810;28;20271;-50
2021/05/11 00:52:04;;;;;;;7.17;3.33;;;15.60;1.00;;;;;;5027631;28;20826;-49
2021/05/11 00:54:31;;;;;;;7.63;3.33;;;15.50;1.00;;;;;;5031561;28;20282;-50
2021/05/11 00:56:58;;;;;;;5.00;3.50;;;15.30;99.90;;;;;;5027453;28;20214;-50
2021/05/11 01:01:51;;;;;;;9.50;3.80;;;15.20;99.90;;;;;;5027226;28;20287;-50
2021/05/11 01:04:18;;;;;;;5.00;3.07;;;15.20;1.00;;;;;;5030344;28;20210;-50
2021/05/11 01:06:44;;;;;;;5.00;3.13;;;15.20;1.00;;;;;;5027128;28;20200;-50
2021/05/11 01:09:12;;;;;;;7.30;3.30;;;15.20;23.60;;;;;;5031056;28;20287;-50
2021/05/11 01:11:39;;;;;;;5.37;3.50;;;15.10;99.90;;;;;;5014304;28;20210;-50
2021/05/11 01:14:06;;;;;;;10.60;3.70;;;15.10;1.00;;;;;;5027773;28;20279;-50
2021/05/11 01:16:33;;;;;;;6.07;3.27;;;15.10;99.90;;;;;;5031389;28;20316;-50
2021/05/11 01:19:06;;;;;;;9.93;4.20;;;15.10;99.90;;;;;;5030536;28;20626;-50
2021/05/11 01:24:14;;;;;;;12.63;3.77;;;15.20;99.90;;;;;;5027595;28;20217;-50
2021/05/11 01:26:46;;;;;;;13.13;4.70;;;15.10;99.90;;;;;;5031199;28;20204;-49
2021/05/11 01:50:38;;;;;;;7.00;4.37;;;15.00;99.90;;;;;;5035380;28;20373;-50
2021/05/11 02:25:07;;;;;;;9.87;4.13;;;15.30;1.00;;;;;;5032382;28;20255;-50
2021/05/11 02:27:36;;;;;;;10.87;4.40;;;15.20;1.00;;;;;;5034144;28;20228;-50
2021/05/11 02:30:10;;;;;;;10.63;4.67;;;15.20;1.00;;;;;;5032013;28;20195;-50
2021/05/11 02:32:41;;;;;;;10.40;4.63;;;15.10;99.90;;;;;;5030462;28;20204;-49
2021/05/11 02:35:10;;;;;;;7.17;4.70;;;15.10;1.00;;;;;;5033087;28;20233;-50
2021/05/11 02:37:36;;;;;;;7.77;4.63;;;15.10;1.00;;;;;;5032678;28;20197;-50
2021/05/11 02:40:04;;;;;;;8.70;4.27;;;15.10;1.00;;;;;;5031197;28;20257;-49
2021/05/11 02:42:31;;;;;;;8.77;4.80;;;15.10;1.00;;;;;;5033377;28;20311;-50
2021/05/11 02:44:57;;;;;;;10.40;5.43;;;15.10;1.00;;;;;;5031391;28;20677;-50
2021/05/11 02:47:24;;;;;;;8.80;5.30;;;15.10;1.00;;;;;;5032468;28;20224;-50
2021/05/11 02:49:51;;;;;;;10.33;5.27;;;15.10;1.00;;;;;;5032519;28;20321;-50
2021/05/11 02:52:17;;;;;;;14.83;5.67;;;15.10;1.00;;;;;;5032137;28;20719;-51
2021/05/11 02:54:44;;;;;;;8.03;5.27;;;15.00;1.00;;;;;;5033900;28;20683;-49
2021/05/11 02:57:10;;;;;;;8.90;4.73;;;15.00;1.00;;;;;;5029046;28;20221;-50
2021/05/11 02:59:39;;;;;;;9.17;5.80;;;15.00;1.00;;;;;;5030912;28;20205;-50
2021/05/11 03:02:07;;;;;;;9.73;5.37;;;14.90;1.00;;;;;;5030129;28;20832;-50
2021/05/11 03:04:34;;;;;;;7.73;5.27;;;15.00;1.00;;;;;;5030611;28;20264;-50
2021/05/11 03:07:00;;;;;;;9.67;5.60;;;14.90;1.00;;;;;;5030143;28;20627;-50
2021/05/11 03:09:27;;;;;;;10.40;5.60;;;14.90;1.00;;;;;;5031911;28;20295;-50
2021/05/11 03:11:55;;;;;;;12.00;5.70;;;14.90;1.00;;;;;;5032159;28;20228;-50
2021/05/11 03:14:22;;;;;;;13.97;5.80;;;15.00;1.00;;;;;;5033075;28;20208;-50
2021/05/11 03:16:51;;;;;;;8.10;5.57;;;15.00;1.00;;;;;;5032474;28;20288;-50
2021/05/11 03:19:18;;;;;;;13.77;6.00;;;15.00;1.00;;;;;;5032204;28;20209;-50
2021/05/11 03:21:45;;;;;;;8.37;5.77;;;15.00;1.00;;;;;;5030537;28;21072;-50
2021/05/11 03:24:14;;;;;;;7.80;6.30;;;15.00;1.00;;;;;;5031918;28;20307;-50
2021/05/11 03:26:41;;;;;;;8.57;6.37;;;15.00;1.00;;;;;;5032367;28;20627;-49
2021/05/11 03:29:07;;;;;;;10.90;5.80;;;15.00;1.00;;;;;;5031979;28;20212;-50
2021/05/11 03:31:34;;;;;;;11.37;5.80;;;15.00;1.00;;;;;;5027566;28;20298;-49
2021/05/11 03:34:00;;;;;;;10.87;5.63;;;14.90;1.00;;;;;;5030611;28;20207;-50
2021/05/11 03:36:27;;;;;;;12.67;7.10;;;14.90;1.00;;;;;;5028251;28;20220;-49
2021/05/11 03:38:54;;;;;;;9.20;6.03;;;14.80;1.00;;;;;;5030987;28;20264;-50
2021/05/11 03:41:25;;;;;;;9.20;6.00;;;14.90;1.00;;;;;;5032730;28;20322;-50
2021/05/11 03:44:00;;;;;;;10.50;6.77;;;14.90;1.00;;;;;;5028902;28;20310;-50
2021/05/11 03:46:26;;;;;;;12.33;5.60;;;14.60;1.00;;;;;;5033137;28;20281;-50
2021/05/11 03:48:54;;;;;;;11.37;5.47;;;14.60;99.90;;;;;;5029590;28;20196;-50
2021/05/11 03:51:21;;;;;;;9.70;5.03;;;14.80;99.90;;;;;;5030585;28;20325;-50
2021/05/11 03:53:47;;;;;;;9.07;5.63;;;14.70;1.00;;;;;;5029557;28;20293;-50
2021/05/11 03:56:14;;;;;;;10.23;5.43;;;14.70;81.50;;;;;;5029111;28;20903;-50
2021/05/11 03:58:41;;;;;;;8.67;4.97;;;14.80;85.60;;;;;;5031949;28;20619;-50
2021/05/11 04:01:08;;;;;;;11.47;5.40;;;14.80;18.80;;;;;;5030011;28;20259;-50
2021/05/11 04:03:35;;;;;;;8.03;5.83;;;14.80;15.50;;;;;;5029358;28;20284;-50
2021/05/11 04:06:03;;;;;;;9.03;5.30;;;14.80;12.70;;;;;;5031982;28;20274;-49
2021/05/11 04:08:52;;;;;;;8.63;5.47;;;14.80;65.60;;;;;;5029896;28;20482;-50
2021/05/11 04:11:33;;;;;;;9.53;5.30;;;14.90;31.30;;;;;;5028521;28;20330;-50
2021/05/11 04:16:36;;;;;;;9.63;6.17;;;14.80;25.20;;;;;;5031199;28;20279;-49
2021/05/11 04:19:03;;;;;;;10.90;5.37;;;14.90;1.00;;;;;;5029779;28;20743;-50
2021/05/11 04:21:30;;;;;;;13.53;6.40;;;14.80;1.00;;;;;;5030666;28;20289;-50
2021/05/11 04:23:57;;;;;;;9.63;5.97;;;14.90;1.00;;;;;;5030033;28;20218;-50
2021/05/11 04:26:24;;;;;;;12.67;6.43;;;14.90;1.00;;;;;;5029573;28;20278;-49
2021/05/11 04:28:51;;;;;;;8.67;6.13;;;14.80;99.90;;;;;;5032025;28;20719;-49
2021/05/11 04:31:19;;;;;;;13.17;5.90;;;14.80;99.90;;;;;;5030928;28;20313;-49
2021/05/11 04:33:47;;;;;;;11.73;6.60;;;14.70;99.90;;;;;;5030990;28;20230;-49
2021/05/11 04:36:15;;;;;;;10.40;6.23;;;14.70;99.90;;;;;;5031651;28;20318;-49
2021/05/11 04:38:42;;;;;;;9.00;6.57;;;14.70;99.90;;;;;;5036225;28;20359;-51
2021/05/11 04:41:09;;;;;;;12.03;6.30;;;14.70;99.90;;;;;;5036311;28;20231;-50
2021/05/11 04:43:39;;;;;;;8.77;5.93;;;14.70;63.20;;;;;;5030079;28;20598;-50
2021/05/11 04:46:25;;;;;;;10.40;6.10;;;14.50;99.90;;;;;;5029563;28;20205;-50
2021/05/11 04:48:53;;;;;;;11.13;6.53;;;14.50;99.90;;;;;;5031966;28;20266;-50
2021/05/11 04:51:21;;;;;;;7.53;5.97;;;14.30;99.90;;;;;;5030486;28;20758;-50
2021/05/11 04:53:48;;;;;;;7.83;5.47;;;14.20;99.90;;;;;;5029383;28;20305;-51
2021/05/11 04:56:15;;;;;;;10.47;5.67;;;14.30;99.90;;;;;;5030522;28;20248;-51
2021/05/11 04:58:42;;;;;;;9.27;5.97;;;14.40;99.90;;;;;;5033428;28;20261;-50
2021/05/11 05:01:09;;;;;;;15.93;6.40;;;14.60;99.90;;;;;;5025460;28;20655;-50
2021/05/11 05:03:40;;;;;;;8.50;4.90;;;14.70;98.70;;;;;;5031385;28;20200;-50
2021/05/11 05:06:07;;;;;;;11.97;6.83;;;14.80;1.00;;;;;;5031793;28;20234;-50
2021/05/11 05:08:35;;;;;;;8.03;5.87;;;14.80;1.00;;;;;;5033880;28;20706;-51
2021/05/11 05:11:02;;;;;;;10.03;5.80;;;14.80;1.00;;;;;;5034450;28;20687;-51
2021/05/11 05:13:29;;;;;;;11.77;6.33;;;14.80;1.00;;;;;;5032068;28;20204;-50
2021/05/11 05:15:57;;;;;;;11.97;6.00;;;14.80;1.00;;;;;;5031170;28;20282;-50
2021/05/11 05:18:26;;;;;;;12.40;6.00;;;14.50;13.10;;;;;;5031436;28;20298;-50
2021/05/11 05:20:54;;;;;;;10.50;5.90;;;14.50;3.40;;;;;;5033329;28;20708;-51
2021/05/11 05:23:27;;;;;;;8.57;5.43;;;14.50;99.90;;;;;;5036080;28;20204;-50
2021/05/11 05:26:01;;;;;;;11.07;6.07;;;14.50;99.90;;;;;;5036956;28;20201;-51
2021/05/11 05:28:28;;;;;;;12.90;5.97;;;14.40;93.40;;;;;;5037728;28;20275;-51
2021/05/11 05:30:55;;;;;;;9.80;5.77;;;14.60;99.90;;;;;;5036659;28;20205;-51
2021/05/11 05:33:29;;;;;;;11.20;5.43;;;14.80;91.00;;;;;;5034946;28;20210;-50
2021/05/11 05:35:56;;;;;;;9.20;5.13;;;14.70;99.90;;;;;;5036953;28;20576;-50
2021/05/11 05:38:23;;;;;;;8.13;5.77;;;14.70;97.10;;;;;;5034984;28;20197;-51
2021/05/11 05:40:56;;;;;;;9.97;5.80;;;14.50;92.70;;;;;;5034533;28;20353;-51
2021/05/11 05:43:23;;;;;;;9.57;6.00;;;14.70;47.30;;;;;;5034446;28;20291;-51
2021/05/11 05:45:52;;;;;;;8.77;5.73;;;14.50;87.00;;;;;;5031363;28;20240;-51
2021/05/11 05:48:20;;;;;;;11.03;5.77;;;14.60;94.60;;;;;;5033129;28;20253;-51
2021/05/11 05:50:52;;;;;;;7.40;5.40;;;14.80;24.10;;;;;;5036942;28;20617;-51
2021/05/11 05:53:33;;;;;;;9.10;5.30;;;14.90;1.00;;;;;;5031969;28;20257;-51
2021/05/11 05:56:02;;;;;;;7.17;5.50;;;14.90;1.00;;;;;;5032652;28;20216;-51
2021/05/11 05:58:29;;;;;;;10.10;5.30;;;14.90;1.00;;;;;;5031221;28;20282;-51
2021/05/11 06:01:02;;;;;;;7.53;6.03;;;15.10;1.00;;;;;;5028939;28;20209;-49
2021/05/11 06:03:50;;;;;;;10.10;5.40;;;15.10;1.00;;;;;;5029957;28;21118;-49
2021/05/11 06:06:17;;;;;;;7.20;5.63;;;15.20;1.00;;;;;;5031569;28;20622;-49
2021/05/11 06:08:44;;;;;;;5.63;4.87;;;15.20;1.00;;;;;;5030541;28;20228;-49
2021/05/11 06:19:18;;;;;;;8.17;5.13;;;15.20;1.00;;;;;;5030304;28;20269;-49
2021/05/11 06:21:46;;;;;;;7.27;5.37;;;15.40;1.00;;;;;;5032221;28;20204;-49
2021/05/11 06:24:13;;;;;;;9.47;5.63;;;15.50;1.00;;;;;;5027564;28;20586;-49
2021/05/11 06:26:43;;;;;;;7.00;5.20;;;15.50;1.00;;;;;;5032522;28;20610;-51
2021/05/11 06:29:15;;;;;;;8.00;5.00;;;15.50;1.00;;;;;;5031955;28;20286;-52
2021/05/11 06:31:41;;;;;;;10.20;5.40;;;15.60;1.00;;;;;;5032343;28;20678;-49
2021/05/11 06:34:10;;;;;;;8.87;4.90;;;15.80;93.60;;;;;;5029998;28;20303;-49
2021/05/11 06:36:37;;;;;;;10.07;5.17;;;15.80;1.00;;;;;;5030339;28;20268;-49
2021/05/11 06:39:08;;;;;;;6.37;4.67;;;15.80;20.80;;;;;;5031317;28;20193;-50
2021/05/11 06:41:36;;;;;;;6.40;5.07;;;15.50;99.90;;;;;;5032901;28;20329;-49
2021/05/11 06:44:39;;;;;;;5.63;4.53;;;15.50;1.00;;;;;;5031927;28;22175;-50
2021/05/11 06:54:39;;;;;;;8.83;4.67;;;15.80;1.00;;;;;;5032032;28;20237;-50
2021/05/11 06:57:07;;;;;;;6.77;4.97;;;15.90;1.00;;;;;;5031298;28;20263;-51
2021/05/11 06:59:34;;;;;;;7.30;4.40;;;16.00;1.00;;;;;;5029668;28;20206;-51
2021/05/11 07:02:02;;;;;;;5.20;4.27;;;16.00;1.00;;;;;;5033079;28;20212;-50
2021/05/11 07:04:29;;;;;;;7.23;4.33;;;16.00;1.00;;;;;;5030874;28;20200;-51
2021/05/11 07:06:57;;;;;;;11.40;4.33;;;16.00;1.00;;;;;;5030465;28;20223;-50
2021/05/11 07:15:03;;;;;;;8.27;4.10;;;16.20;99.90;;;;;;5032296;28;20207;-50
2021/05/11 07:17:30;;;;;;;8.00;4.10;;;16.00;1.00;;;;;;5029123;28;20581;-51
2021/05/11 07:19:57;;;;;;;7.97;4.47;;;16.00;1.00;;;;;;5031980;28;20203;-50
2021/05/11 07:22:23;;;;;;;6.77;4.83;;;16.30;1.00;;;;;;5029336;28;20205;-50
2021/05/11 07:24:53;;;;;;;5.87;4.60;;;16.40;99.90;;;;;;5027142;28;20203;-50
2021/05/11 07:30:09;;;;;;;7.70;4.03;;;16.30;1.00;;;;;;5021688;28;20276;-51
2021/05/11 07:32:37;;;;;;;8.53;4.67;;;16.30;1.00;;;;;;5027035;28;20238;-49
2021/05/11 07:35:05;;;;;;;6.93;4.67;;;16.10;99.90;;;;;;5029973;28;20218;-50
2021/05/11 07:37:32;;;;;;;9.63;5.93;;;16.10;99.90;;;;;;5031412;28;20278;-50
2021/05/11 07:40:00;;;;;;;8.10;5.17;;;16.30;1.00;;;;;;5028235;28;20235;-50
2021/05/11 07:42:26;;;;;;;5.17;4.67;;;16.30;1.00;;;;;;5030506;28;20224;-50
2021/05/11 07:44:57;;;;;;;6.73;4.90;;;16.40;1.00;;;;;;5032145;28;20208;-51
2021/05/11 08:04:31;;;;;;;10.10;5.37;;;16.40;1.00;;;;;;5067219;28;20353;-49
2021/05/11 08:17:39;;;;;;;7.90;4.73;;;16.80;1.00;;;;;;5067662;28;20253;-50
2021/05/11 08:28:30;;;;;;;7.37;4.83;;;17.10;99.90;;;;;;5064798;28;20322;-50
2021/05/11 08:30:57;;;;;;;8.30;4.10;;;17.20;1.00;;;;;;5064708;28;20246;-50
2021/05/11 08:33:24;;;;;;;8.47;3.70;;;17.10;99.90;;;;;;5061879;28;20209;-50
2021/05/11 08:35:51;;;;;;;7.33;3.40;;;17.00;1.00;;;;;;5064909;28;20214;-49
2021/05/11 08:38:18;;;;;;;11.03;4.00;;;17.10;1.00;;;;;;5065882;28;20975;-50
2021/05/11 08:40:45;;;;;;;6.43;4.03;;;17.00;99.90;;;;;;5066075;28;20581;-50
2021/05/11 08:43:31;;;;;;;6.47;4.13;;;17.00;99.90;;;;;;5059997;28;20281;-49
2021/05/11 08:46:02;;;;;;;6.70;4.57;;;16.80;99.90;;;;;;5067577;28;20286;-49
2021/05/11 08:48:29;;;;;;;9.83;4.30;;;16.90;1.00;;;;;;5069005;28;20293;-50
2021/05/11 08:51:21;;;;;;;5.87;3.90;;;16.70;99.90;;;;;;5066683;28;20279;-50
2021/05/11 09:54:47;;;;;;;7.93;3.50;;;17.10;1.00;;;;;;5048758;28;20698;-50
2021/05/11 09:57:26;;;;;;;4.67;3.30;;;17.00;1.00;;;;;;5053252;28;20206;-51
2021/05/11 10:00:55;;;;;;;4.50;3.23;;;16.90;1.00;;;;;;5050360;28;20201;-50
2021/05/11 10:12:06;;;;;;;8.13;4.53;;;16.90;99.90;;;;;;5050266;28;20234;-51
2021/05/11 10:27:04;;;;;;;5.40;4.17;;;17.20;1.00;;;;;;5051927;28;20213;-47
2021/05/11 10:46:57;;;;;;;5.27;2.83;;;18.20;1.00;;;;;;5049401;28;20257;-49
2021/05/11 10:49:35;;;;;;;4.93;2.80;;;18.30;1.00;;;;;;5049484;28;20829;-50
2021/05/11 10:52:42;;;;;;;5.73;3.87;;;18.50;1.00;;;;;;5048926;28;20226;-49
2021/05/11 10:55:19;;;;;;;7.67;3.37;;;18.60;1.00;;;;;;5048723;28;20198;-49
2021/05/11 10:58:04;;;;;;;7.03;3.43;;;18.90;1.00;;;;;;5051967;28;20265;-49
2021/05/11 11:00:34;;;;;;;5.97;3.37;;;19.00;1.00;;;;;;5047864;28;20239;-49
2021/05/11 11:03:18;;;;;;;6.23;3.67;;;19.30;1.00;;;;;;5049094;28;20305;-49
2021/05/11 11:05:52;;;;;;;6.70;3.37;;;19.50;1.00;;;;;;5050594;28;20210;-49
2021/05/11 11:08:33;;;;;;;7.80;4.37;;;19.70;99.90;;;;;;5044824;28;21026;-49
2021/05/11 11:11:10;;;;;;;6.77;3.63;;;19.90;7.20;;;;;;5049128;28;20237;-50
2021/05/11 11:13:41;;;;;;;6.23;3.53;;;19.90;1.00;;;;;;5050293;28;20279;-50
2021/05/11 11:16:09;;;;;;;7.57;3.03;;;19.80;1.00;;;;;;5047786;28;20291;-50
2021/05/11 11:18:36;;;;;;;4.53;2.80;;;19.60;1.00;;;;;;5049622;28;20206;-50
2021/05/11 11:23:54;;;;;;;6.80;3.20;;;18.90;1.00;;;;;;5044316;28;20207;-49
2021/05/11 11:26:26;;;;;;;7.07;3.57;;;18.70;1.00;;;;;;5049456;28;20308;-49
2021/05/11 11:29:08;;;;;;;6.93;3.23;;;18.70;99.90;;;;;;5048455;28;20200;-50
2021/05/11 11:31:39;;;;;;;7.23;3.20;;;18.90;99.90;;;;;;5048218;28;20287;-49
2021/05/11 11:34:31;;;;;;;4.83;2.50;;;18.90;1.00;;;;;;5048082;28;20339;-49
2021/05/11 11:37:00;;;;;;;5.03;2.00;;;18.50;1.00;;;;;;5044855;28;20377;-49
2021/05/11 11:39:42;;;;;;;4.07;2.10;;;18.40;1.00;;;;;;5047704;28;20263;-50
2021/05/11 11:42:19;;;;;;;4.20;1.70;;;18.20;1.00;;;;;;5048821;28;20888;-49
2021/05/11 11:44:49;;;;;;;5.10;1.60;;;18.30;1.00;;;;;;5048009;28;20203;-50
2021/05/11 11:47:16;;;;;;;3.73;1.63;;;18.20;1.00;;;;;;5048344;28;20333;-50
2021/05/11 11:49:46;;;;;;;1.67;1.57;;;18.30;1.00;;;;;;5049423;28;20196;-49
2021/05/11 11:52:22;;;;;;;3.43;1.40;;;18.20;1.00;;;;;;5047662;28;20252;-49
2021/05/11 11:57:45;;;;;;;2.93;1.40;;;18.20;1.00;;;;;;5047735;28;20218;-50
2021/05/11 12:00:20;;;;;;;3.20;1.30;;;18.40;1.00;;;;;;5043973;28;20206;-57
2021/05/11 12:03:04;;;;;;;5.20;1.77;;;18.50;1.00;;;;;;5047811;28;20206;-49
2021/05/11 12:05:36;;;;;;;3.77;1.70;;;18.50;1.00;;;;;;5050379;28;20218;-49
2021/05/11 12:10:52;;;;;;;3.03;2.10;;;18.50;99.90;;;;;;5049370;28;20272;-50
2021/05/11 12:13:24;;;;;;;5.07;2.10;;;18.30;69.30;;;;;;5047170;28;20253;-49
2021/05/11 12:16:18;;;;;;;5.10;1.50;;;18.20;70.70;;;;;;5046256;28;20596;-50
2021/05/11 12:19:12;;;;;;;3.77;1.20;;;18.40;99.90;;;;;;5044624;28;20209;-49
2021/05/11 12:21:59;;;;;;;4.03;0.93;;;18.20;10.30;;;;;;5050512;28;20238;-49
2021/05/11 12:24:28;;;;;;;3.57;1.30;;;18.20;69.40;;;;;;5042780;28;20202;-49
2021/05/11 12:27:13;;;;;;;1.80;1.10;;;18.20;1.00;;;;;;5050348;28;20898;-50
2021/05/11 12:30:02;;;;;;;4.47;1.00;;;18.40;99.90;;;;;;5046532;28;20424;-50
2021/05/11 12:32:29;;;;;;;3.13;1.03;;;18.40;1.00;;;;;;5043115;28;20207;-50
2021/05/11 12:35:11;;;;;;;5.17;1.20;;;18.50;1.00;;;;;;5057211;28;20221;-50
2021/05/11 12:37:57;;;;;;;3.07;1.40;;;18.70;99.90;;;;;;5049424;28;20319;-50
2021/05/11 12:40:31;;;;;;;2.93;1.57;;;18.50;1.00;;;;;;5050192;28;20660;-50
2021/05/11 12:43:01;;;;;;;3.67;1.33;;;18.80;98.80;;;;;;5052980;28;20246;-50
2021/05/11 12:45:39;;;;;;;1.83;0.97;;;18.90;1.00;;;;;;5051609;28;20725;-57
2021/05/11 12:48:09;;;;;;;3.70;1.17;;;18.80;1.00;;;;;;5046246;28;20299;-56
2021/05/11 12:50:40;;;;;;;3.07;1.60;;;18.60;1.00;;;;;;5049534;28;20203;-56
2021/05/11 12:53:46;;;;;;;5.20;1.50;;;18.30;1.00;;;;;;5049180;28;20209;-56
2021/05/11 13:00:00;;;;;;;1.93;1.10;;;18.40;1.00;;;;;;5050192;28;20205;-56
2021/05/11 13:14:51;;;;;;;3.30;0.90;;;18.70;1.00;;;;;;5051457;28;20201;-56
2021/05/11 13:17:11;;;;;;;3.40;0.90;;;18.50;1.00;;;;;;5050079;28;20603;-56
2021/05/11 13:27:42;;;;;;;2.47;0.80;;;18.40;1.00;;;;;;5039080;28;20302;-56
2021/05/11 13:30:22;;;;;;;3.60;1.30;;;18.70;1.00;;;;;;5049825;28;20242;-56
2021/05/11 13:33:01;;;;;;;3.07;1.40;;;18.70;1.00;;;;;;5049342;28;20231;-56
2021/05/11 13:35:34;;;;;;;2.10;1.40;;;18.50;1.00;;;;;;5048337;28;20198;-56
2021/05/11 13:38:01;;;;;;;3.60;1.20;;;18.50;1.00;;;;;;5048967;28;20273;-56
2021/05/11 13:40:28;;;;;;;3.83;1.20;;;18.50;1.00;;;;;;5048658;28;20219;-56
2021/05/11 13:42:55;;;;;;;3.73;1.03;;;18.50;1.00;;;;;;5046674;28;20664;-56
2021/05/11 13:45:24;;;;;;;2.80;1.23;;;18.40;1.00;;;;;;5050083;28;20214;-56
2021/05/11 13:48:19;;;;;;;3.47;1.00;;;18.40;1.00;;;;;;5045453;28;20221;-56
2021/05/11 13:53:15;;;;;;;2.10;0.90;;;18.40;1.00;;;;;;5049273;28;20204;-56
2021/05/11 13:56:04;;;;;;;2.53;0.93;;;18.50;1.00;;;;;;5048484;28;20200;-56
2021/05/11 14:03:56;;;;;;;2.57;0.80;;;18.50;1.00;;;;;;5048896;28;20200;-56
2021/05/11 14:06:23;;;;;;;3.13;1.00;;;18.60;1.00;;;;;;5050739;28;20728;-56
2021/05/11 14:08:50;;;;;;;2.23;0.90;;;18.50;1.00;;;;;;5048584;28;20660;-56
2021/05/11 14:11:17;;;;;;;1.70;0.80;;;18.60;1.00;;;;;;5052759;28;20645;-56
2021/05/11 14:13:44;;;;;;;1.17;0.70;;;18.80;1.00;;;;;;5047546;28;20726;-56
2021/05/11 14:16:11;;;;;;;2.97;0.80;;;18.80;1.00;;;;;;5048355;28;20209;-56
2021/05/11 14:18:38;;;;;;;2.20;0.97;;;18.40;1.00;;;;;;5048686;28;20209;-56
2021/05/11 14:21:06;;;;;;;2.80;1.10;;;18.50;1.00;;;;;;5048804;28;20211;-56
2021/05/11 14:23:33;;;;;;;2.63;0.83;;;18.70;1.00;;;;;;5050798;28;20207;-56
2021/05/11 14:26:01;;;;;;;4.67;1.07;;;18.80;1.00;;;;;;5048078;28;20203;-56
2021/05/11 14:28:28;;;;;;;1.73;1.07;;;18.80;1.00;;;;;;5050971;28;20242;-56
2021/05/11 14:30:55;;;;;;;2.70;1.10;;;18.70;1.00;;;;;;5052273;28;20231;-56
2021/05/11 14:33:22;;;;;;;3.03;1.00;;;18.80;1.00;;;;;;5051146;28;20215;-56
2021/05/11 14:35:49;;;;;;;2.13;1.10;;;18.80;1.00;;;;;;5054251;28;20199;-56
2021/05/11 14:38:16;;;;;;;5.23;1.20;;;18.70;1.00;;;;;;5054155;28;20206;-56
2021/05/11 14:40:43;;;;;;;3.13;1.17;;;18.70;1.00;;;;;;5055427;28;20631;-56
2021/05/11 14:43:10;;;;;;;1.93;1.00;;;18.70;1.00;;;;;;5052421;28;20208;-56
2021/05/11 14:45:36;;;;;;;4.87;1.23;;;18.60;1.00;;;;;;5049546;28;20321;-56
2021/05/11 14:48:04;;;;;;;3.13;1.00;;;18.60;1.00;;;;;;5048152;28;21906;-56
2021/05/11 14:50:31;;;;;;;2.10;1.27;;;18.60;38.00;;;;;;5049234;28;20277;-56
2021/05/11 14:53:00;;;;;;;3.00;1.00;;;18.60;1.00;;;;;;5046896;28;20839;-56
2021/05/11 14:55:27;;;;;;;1.27;0.77;;;18.70;1.00;;;;;;5051973;28;20194;-56
2021/05/11 14:57:55;;;;;;;1.97;0.97;;;18.70;1.00;;;;;;5055168;28;20623;-56
2021/05/11 15:00:25;;;;;;;1.47;0.80;;;18.80;1.00;;;;;;5049936;28;20216;-56
2021/05/11 15:02:52;;;;;;;3.50;1.07;;;18.80;1.00;;;;;;5051899;28;20686;-56
2021/05/11 15:05:19;;;;;;;2.13;1.03;;;18.70;1.00;;;;;;5050852;28;20630;-56
2021/05/11 15:07:48;;;;;;;3.30;0.93;;;18.60;1.00;;;;;;5051935;28;20324;-56
2021/05/11 15:10:16;;;;;;;2.43;1.23;;;18.90;1.00;;;;;;5053247;28;20196;-56
2021/05/11 15:12:43;;;;;;;5.03;1.37;;;19.10;1.00;;;;;;5048096;28;20198;-56
2021/05/11 15:15:11;;;;;;;4.10;1.17;;;19.20;1.00;;;;;;5052338;28;20729;-56
2021/05/11 15:20:05;;;;;;;3.33;1.27;;;18.90;1.00;;;;;;5051032;28;20218;-56
2021/05/11 15:22:34;;;;;;;2.40;0.90;;;18.90;1.00;;;;;;5050175;28;20565;-56
2021/05/11 15:25:02;;;;;;;3.27;1.30;;;19.00;1.00;;;;;;5048969;28;20245;-56
2021/05/11 15:27:29;;;;;;;2.80;1.00;;;19.20;1.00;;;;;;5052760;28;20797;-56
2021/05/11 15:29:58;;;;;;;3.90;1.17;;;19.40;1.00;;;;;;5050515;28;20239;-56
2021/05/11 15:32:45;;;;;;;4.93;1.23;;;19.40;1.00;;;;;;5053597;28;20207;-56
2021/05/11 15:35:15;;;;;;;0.80;0.80;;;19.20;1.00;;;;;;5054034;28;20626;-56
2021/05/11 15:37:45;;;;;;;3.83;1.50;;;19.10;1.00;;;;;;5050796;28;20203;-56
2021/05/11 15:40:15;;;;;;;4.60;1.30;;;19.20;1.00;;;;;;5051571;28;20982;-56
2021/05/11 15:42:42;;;;;;;2.50;1.00;;;18.90;1.00;;;;;;5051654;28;20280;-56
2021/05/11 15:45:10;;;;;;;3.83;1.10;;;18.80;1.00;;;;;;5051659;28;20305;-56
2021/05/11 15:47:38;;;;;;;2.43;1.03;;;18.70;1.00;;;;;;5052458;28;20243;-56
2021/05/11 15:50:06;;;;;;;2.57;1.50;;;18.80;1.00;;;;;;5050197;28;20273;-56
2021/05/11 15:52:33;;;;;;;4.40;1.53;;;19.00;1.00;;;;;;5048214;28;20203;-56
2021/05/11 15:55:00;;;;;;;4.97;1.63;;;19.10;1.00;;;;;;5053493;28;20210;-56
2021/05/11 15:57:30;;;;;;;5.57;2.00;;;19.30;1.00;;;;;;5051688;28;20206;-57
2021/05/11 15:59:57;;;;;;;3.73;1.43;;;19.00;1.00;;;;;;5049884;28;20209;-56
2021/05/11 16:02:23;;;;;;;3.03;1.20;;;19.00;1.00;;;;;;5050623;28;20236;-56
2021/05/11 16:04:50;;;;;;;4.47;1.77;;;19.00;1.00;;;;;;5050583;28;20684;-56
2021/05/11 16:07:17;;;;;;;7.13;1.83;;;18.90;1.00;;;;;;5052687;28;20214;-56
2021/05/11 16:09:44;;;;;;;6.17;2.17;;;18.90;1.00;;;;;;5054434;28;20202;-56
2021/05/11 16:12:11;;;;;;;3.80;2.10;;;18.90;1.00;;;;;;5054508;28;20238;-56
2021/05/11 16:14:38;;;;;;;4.77;1.97;;;18.80;1.00;;;;;;5046039;28;20274;-56
2021/05/11 16:17:04;;;;;;;5.93;2.40;;;18.60;1.00;;;;;;5052109;28;20707;-56
2021/05/11 16:19:31;;;;;;;3.43;2.43;;;18.60;1.00;;;;;;5050523;28;20241;-56
2021/05/11 16:21:58;;;;;;;4.23;2.20;;;18.60;1.00;;;;;;5055153;28;20262;-56
2021/05/11 16:24:25;;;;;;;3.60;2.00;;;18.50;1.00;;;;;;5050497;28;20221;-56
2021/05/11 16:26:52;;;;;;;3.93;2.20;;;18.40;17.40;;;;;;5055954;28;23056;-56
2021/05/11 16:29:19;;;;;;;4.00;3.17;;;18.30;99.90;;;;;;5054299;28;20811;-57
2021/05/11 16:31:47;;;;;;;5.80;2.67;;;17.50;99.90;;;;;;5049458;28;20713;-56
2021/05/11 16:34:14;;;;;;;4.27;2.80;;;17.00;1.00;;;;;;5052235;28;22058;-56
2021/05/11 16:36:41;;;;;;;3.83;2.80;;;16.80;1.00;;;;;;5052020;28;20353;-55
2021/05/11 16:39:08;;;;;;;5.03;2.60;;;16.60;1.00;;;;;;5044319;28;20637;-55
2021/05/11 16:41:35;;;;;;;3.87;3.00;;;16.70;1.00;;;;;;5052279;28;20652;-55
2021/05/11 16:44:02;;;;;;;5.13;3.00;;;16.50;1.00;;;;;;5051992;28;20211;-55
2021/05/11 16:46:29;;;;;;;3.97;2.57;;;16.60;1.00;;;;;;5053399;28;20721;-55
2021/05/11 16:48:56;;;;;;;4.37;2.57;;;16.40;99.90;;;;;;5051776;28;20325;-55
2021/05/11 16:51:22;;;;;;;6.43;2.60;;;16.10;1.00;;;;;;5050606;28;20226;-55
2021/05/11 16:53:49;;;;;;;2.47;2.20;;;16.10;1.00;;;;;;5048452;28;20587;-55
2021/05/11 16:56:16;;;;;;;3.27;1.60;;;15.90;1.00;;;;;;5053405;28;20558;-55
2021/05/11 16:58:44;;;;;;;3.77;2.10;;;16.00;1.00;;;;;;5049453;28;20229;-55
2021/05/11 17:01:11;;;;;;;4.30;1.60;;;16.00;1.00;;;;;;5048588;28;20228;-57
2021/05/11 17:03:38;;;;;;;3.20;1.90;;;16.00;1.00;;;;;;5051747;28;20626;-57
2021/05/11 17:06:04;;;;;;;3.87;2.57;;;16.00;99.90;;;;;;5052250;28;21310;-55
2021/05/11 17:08:31;;;;;;;5.70;3.13;;;15.90;1.00;;;;;;5052187;28;20270;-55
2021/05/11 17:11:00;;;;;;;5.47;3.73;;;16.00;99.90;;;;;;5054743;28;20265;-56
2021/05/11 17:13:27;;;;;;;6.73;4.30;;;16.00;99.90;;;;;;5052417;28;20274;-56
2021/05/11 17:15:53;;;;;;;5.40;4.40;;;15.90;99.90;;;;;;5051205;28;20213;-56
2021/05/11 17:18:20;;;;;;;8.70;6.70;;;15.90;1.00;;;;;;5047005;28;20285;-55
2021/05/11 17:20:47;;;;;;;12.33;10.47;;;15.90;1.00;;;;;;5048543;28;20343;-55
2021/05/11 17:23:14;;;;;;;8.97;7.23;;;15.90;1.00;;;;;;5044624;28;20204;-55
2021/05/11 17:25:43;;;;;;;33.23;23.83;;;15.80;1.00;;;;;;5052279;28;20710;-55
2021/05/11 17:28:11;;;;;;;12.07;10.50;;;15.80;1.00;;;;;;5055744;28;21008;-55
2021/05/11 17:30:42;;;;;;;10.43;9.33;;;15.80;99.90;;;;;;5048917;28;20295;-55